createdAt,value
2022-11-12T00:00:45.471Z,1000.46
2022-11-12T00:01:45.509Z,1000.48
2022-11-12T00:02:45.443Z,1000.51
2022-11-12T00:03:45.463Z,1000.50
2022-11-12T00:04:45.440Z,1000.49
2022-11-12T00:05:45.389Z,1000.52
2022-11-12T00:06:45.452Z,1000.46
2022-11-12T00:07:45.403Z,1000.45
2022-11-12T00:08:45.361Z,1000.45
2022-11-12T00:09:45.363Z,1000.47
2022-11-12T00:10:45.365Z,1000.42
2022-11-12T00:11:45.364Z,1000.41
2022-11-12T00:12:45.355Z,1000.43
2022-11-12T00:13:45.345Z,1000.47
2022-11-12T00:14:45.314Z,1000.44
2022-11-12T00:15:45.316Z,1000.38
2022-11-12T00:16:45.325Z,1000.39
2022-11-12T00:17:45.295Z,1000.40
2022-11-12T00:18:45.276Z,1000.41
2022-11-12T00:19:45.263Z,1000.40
2022-11-12T00:20:45.267Z,1000.41
2022-11-12T00:21:45.256Z,1000.42
2022-11-12T00:22:45.234Z,1000.45
2022-11-12T00:23:45.226Z,1000.43
2022-11-12T00:24:45.234Z,1000.43
2022-11-12T00:25:45.223Z,1000.43
2022-11-12T00:26:45.186Z,1000.40
2022-11-12T00:27:45.186Z,1000.39
2022-11-12T00:28:45.166Z,1000.44
2022-11-12T00:29:45.143Z,1000.41
2022-11-12T00:30:45.162Z,1000.46
2022-11-12T00:31:45.143Z,1000.37
2022-11-12T00:32:45.126Z,1000.43
2022-11-12T00:33:45.127Z,1000.45
2022-11-12T00:34:45.093Z,1000.45
2022-11-12T00:35:45.118Z,1000.40
2022-11-12T00:36:45.078Z,1000.37
2022-11-12T00:37:45.097Z,1000.42
2022-11-12T00:38:45.055Z,1000.43
2022-11-12T00:39:45.058Z,1000.41
2022-11-12T00:40:45.030Z,1000.43
2022-11-12T00:41:45.027Z,1000.44
2022-11-12T00:42:45.028Z,1000.47
2022-11-12T00:43:45.020Z,1000.47
2022-11-12T00:44:45.021Z,1000.49
2022-11-12T00:45:44.984Z,1000.48
2022-11-12T00:46:44.978Z,1000.42
2022-11-12T00:47:44.964Z,1000.47
2022-11-12T00:48:44.968Z,1000.51
2022-11-12T00:49:44.957Z,1000.46
2022-11-12T00:50:44.955Z,1000.45
2022-11-12T00:51:44.937Z,1000.43
2022-11-12T00:52:44.928Z,1000.44
2022-11-12T00:53:44.907Z,1000.38
2022-11-12T00:54:44.910Z,1000.42
2022-11-12T00:55:44.882Z,1000.40
2022-11-12T00:56:44.859Z,1000.42
2022-11-12T00:57:44.876Z,1000.40
2022-11-12T00:58:44.849Z,1000.37
2022-11-12T00:59:44.830Z,1000.40
2022-11-12T01:00:44.881Z,1000.41
2022-11-12T01:01:44.810Z,1000.35
2022-11-12T01:02:50.404Z,1000.43
2022-11-12T01:03:45.861Z,1000.41
2022-11-12T01:04:44.800Z,1000.40
2022-11-12T01:05:44.770Z,1000.45
2022-11-12T01:06:44.831Z,1000.47
2022-11-12T01:07:44.771Z,1000.41
2022-11-12T01:08:44.741Z,1000.43
2022-11-12T01:09:44.751Z,1000.37
2022-11-12T01:10:44.740Z,1000.30
2022-11-12T01:11:44.711Z,1000.35
2022-11-12T01:12:44.721Z,1000.42
2022-11-12T01:13:44.687Z,1000.36
2022-11-12T01:14:44.671Z,1000.36
2022-11-12T01:15:44.659Z,1000.33
2022-11-12T01:16:44.651Z,1000.36
2022-11-12T01:17:44.651Z,1000.39
2022-11-12T01:18:44.652Z,1000.42
2022-11-12T01:19:44.643Z,1000.42
2022-11-12T01:20:44.610Z,1000.42
2022-11-12T01:21:44.623Z,1000.41
2022-11-12T01:22:44.591Z,1000.44
2022-11-12T01:23:44.594Z,1000.48
2022-11-12T01:24:44.569Z,1000.42
2022-11-12T01:25:44.573Z,1000.43
2022-11-12T01:26:44.552Z,1000.43
2022-11-12T01:27:44.568Z,1000.45
2022-11-12T01:28:44.536Z,1000.40
2022-11-12T01:29:44.540Z,1000.40
2022-11-12T01:30:44.511Z,1000.39
2022-11-12T01:31:44.518Z,1000.34
2022-11-12T01:32:44.493Z,1000.32
2022-11-12T01:33:44.494Z,1000.31
2022-11-12T01:34:44.454Z,1000.28
2022-11-12T01:35:44.463Z,1000.29
2022-11-12T01:36:44.444Z,1000.31
2022-11-12T01:37:44.443Z,1000.32
2022-11-12T01:38:44.414Z,1000.33
2022-11-12T01:39:44.405Z,1000.26
2022-11-12T01:40:44.386Z,1000.24
2022-11-12T01:41:44.385Z,1000.19
2022-11-12T01:42:44.369Z,1000.21
2022-11-12T01:43:44.386Z,1000.31
2022-11-12T01:44:44.343Z,1000.24
2022-11-12T01:45:44.355Z,1000.23
2022-11-12T01:46:44.324Z,1000.25
2022-11-12T01:47:44.335Z,1000.25
2022-11-12T01:48:44.325Z,1000.17
2022-11-12T01:49:48.741Z,1000.14
2022-11-12T01:50:45.285Z,1000.20
2022-11-12T01:51:44.284Z,1000.18
2022-11-12T01:52:44.271Z,1000.13
2022-11-12T01:53:44.295Z,1000.13
2022-11-12T01:54:44.275Z,1000.17
2022-11-12T01:55:44.221Z,1000.11
2022-11-12T01:56:44.233Z,1000.11
2022-11-12T01:57:44.232Z,1000.14
2022-11-12T01:58:44.214Z,1000.11
2022-11-12T01:59:44.205Z,1000.08
2022-11-12T02:00:44.247Z,1000.10
2022-11-12T02:01:44.175Z,1000.12
2022-11-12T02:02:44.156Z,1000.07
2022-11-12T02:03:44.176Z,1000.09
2022-11-12T02:04:44.140Z,1000.03
2022-11-12T02:05:44.136Z,1000.04
2022-11-12T02:06:44.199Z,1000.05
2022-11-12T02:07:44.112Z,1000.01
2022-11-12T02:08:44.085Z,1000.02
2022-11-12T02:09:44.097Z,999.95
2022-11-12T02:10:44.086Z,999.95
2022-11-12T02:11:44.064Z,999.94
2022-11-12T02:12:44.055Z,999.98
2022-11-12T02:13:44.058Z,1000.02
2022-11-12T02:14:44.036Z,999.99
2022-11-12T02:15:44.027Z,999.99
2022-11-12T02:16:44.005Z,1000.01
2022-11-12T02:17:44.037Z,999.96
2022-11-12T02:18:43.983Z,999.98
2022-11-12T02:19:43.962Z,999.99
2022-11-12T02:20:43.973Z,999.96
2022-11-12T02:21:43.966Z,999.96
2022-11-12T02:22:43.941Z,999.93
2022-11-12T02:23:43.936Z,1000.00
2022-11-12T02:24:43.926Z,999.95
2022-11-12T02:25:43.906Z,999.86
2022-11-12T02:26:43.927Z,999.89
2022-11-12T02:27:43.897Z,999.94
2022-11-12T02:28:43.878Z,999.91
2022-11-12T02:29:43.873Z,999.87
2022-11-12T02:30:43.883Z,999.85
2022-11-12T02:31:43.857Z,999.83
2022-11-12T02:32:43.864Z,999.88
2022-11-12T02:33:43.846Z,999.87
2022-11-12T02:34:43.828Z,999.91
2022-11-12T02:35:43.817Z,999.85
2022-11-12T02:36:43.807Z,999.81
2022-11-12T02:37:43.777Z,999.85
2022-11-12T02:38:43.754Z,999.84
2022-11-12T02:39:43.757Z,999.80
2022-11-12T02:40:43.755Z,999.81
2022-11-12T02:41:43.748Z,999.79
2022-11-12T02:42:43.728Z,999.76
2022-11-12T02:43:43.738Z,999.79
2022-11-12T02:44:43.727Z,999.76
2022-11-12T02:45:43.683Z,999.83
2022-11-12T02:46:43.688Z,999.94
2022-11-12T02:47:43.708Z,999.79
2022-11-12T02:48:43.644Z,999.86
2022-11-12T02:49:43.661Z,999.91
2022-11-12T02:50:43.634Z,999.89
2022-11-12T02:51:43.603Z,999.96
2022-11-12T02:52:43.611Z,999.88
2022-11-12T02:53:43.585Z,999.93
2022-11-12T02:54:43.581Z,999.93
2022-11-12T02:55:43.583Z,999.90
2022-11-12T02:56:43.561Z,999.91
2022-11-12T02:57:43.544Z,999.93
2022-11-12T02:58:43.557Z,999.95
2022-11-12T02:59:43.546Z,999.90
2022-11-12T03:00:43.594Z,1000.00
2022-11-12T03:01:43.505Z,999.99
2022-11-12T03:02:43.499Z,999.92
2022-11-12T03:03:43.495Z,999.92
2022-11-12T03:04:48.316Z,999.95
2022-11-12T03:05:44.528Z,999.94
2022-11-12T03:06:43.503Z,999.94
2022-11-12T03:07:43.436Z,999.99
2022-11-12T03:08:43.435Z,1000.03
2022-11-12T03:09:43.417Z,999.95
2022-11-12T03:10:43.475Z,999.96
2022-11-12T03:11:43.417Z,1000.00
2022-11-12T03:12:43.406Z,1000.01
2022-11-12T03:13:43.376Z,999.98
2022-11-12T03:14:43.369Z,1000.01
2022-11-12T03:15:43.359Z,999.98
2022-11-12T03:16:43.366Z,1000.04
2022-11-12T03:17:43.327Z,1000.03
2022-11-12T03:18:43.327Z,1000.04
2022-11-12T03:19:43.317Z,1000.01
2022-11-12T03:20:43.304Z,1000.04
2022-11-12T03:21:43.305Z,1000.03
2022-11-12T03:22:43.285Z,999.99
2022-11-12T03:23:43.274Z,1000.05
2022-11-12T03:24:43.269Z,1000.00
2022-11-12T03:25:43.250Z,1000.08
2022-11-12T03:26:43.241Z,999.99
2022-11-12T03:27:43.227Z,1000.00
2022-11-12T03:28:43.238Z,1000.01
2022-11-12T03:29:43.198Z,999.98
2022-11-12T03:30:43.218Z,999.94
2022-11-12T03:31:43.188Z,999.98
2022-11-12T03:32:43.177Z,999.93
2022-11-12T03:33:43.179Z,999.89
2022-11-12T03:34:43.175Z,999.94
2022-11-12T03:35:43.141Z,999.94
2022-11-12T03:36:43.168Z,999.86
2022-11-12T03:37:43.140Z,999.93
2022-11-12T03:38:43.127Z,999.90
2022-11-12T03:39:43.147Z,999.93
2022-11-12T03:40:43.106Z,999.96
2022-11-12T03:41:43.109Z,999.97
2022-11-12T03:42:43.070Z,999.90
2022-11-12T03:43:43.050Z,999.93
2022-11-12T03:44:43.051Z,999.87
2022-11-12T03:45:43.037Z,999.87
2022-11-12T03:46:44.336Z,999.88
2022-11-12T03:47:43.031Z,999.87
2022-11-12T03:48:43.010Z,999.88
2022-11-12T03:49:42.989Z,999.83
2022-11-12T03:50:42.988Z,999.94
2022-11-12T03:51:42.973Z,999.94
2022-11-12T03:52:42.980Z,999.91
2022-11-12T03:53:42.949Z,1000.02
2022-11-12T03:54:42.948Z,1000.00
2022-11-12T03:55:42.931Z,1000.02
2022-11-12T03:56:42.940Z,1000.01
2022-11-12T03:57:42.909Z,1000.02
2022-11-12T03:58:42.900Z,1000.02
2022-11-12T03:59:42.890Z,1000.00
2022-11-12T04:00:42.883Z,1000.06
2022-11-12T04:01:42.863Z,1000.12
2022-11-12T04:02:42.882Z,1000.14
2022-11-12T04:03:42.845Z,1000.09
2022-11-12T04:04:42.840Z,1000.11
2022-11-12T04:05:42.822Z,1000.11
2022-11-12T04:06:42.854Z,1000.09
2022-11-12T04:07:42.802Z,1000.15
2022-11-12T04:08:42.820Z,1000.11
2022-11-12T04:09:42.783Z,1000.09
2022-11-12T04:10:42.773Z,1000.02
2022-11-12T04:11:42.753Z,999.97
2022-11-12T04:12:42.759Z,999.96
2022-11-12T04:13:42.740Z,1000.02
2022-11-12T04:14:42.754Z,999.99
2022-11-12T04:15:42.712Z,1000.00
2022-11-12T04:16:42.712Z,1000.07
2022-11-12T04:17:42.692Z,1000.02
2022-11-12T04:18:42.690Z,1000.02
2022-11-12T04:19:42.695Z,1000.02
2022-11-12T04:20:42.662Z,1000.10
2022-11-12T04:21:42.655Z,1000.12
2022-11-12T04:22:42.644Z,1000.14
2022-11-12T04:23:42.633Z,1000.18
2022-11-12T04:24:42.651Z,1000.07
2022-11-12T04:25:42.611Z,1000.07
2022-11-12T04:26:42.623Z,1000.12
2022-11-12T04:27:42.597Z,999.96
2022-11-12T04:28:42.582Z,999.98
2022-11-12T04:29:42.584Z,1000.03
2022-11-12T04:30:42.558Z,999.93
2022-11-12T04:31:42.544Z,999.99
2022-11-12T04:32:42.545Z,1000.00
2022-11-12T04:33:42.524Z,999.97
2022-11-12T04:34:42.589Z,999.96
2022-11-12T04:35:42.515Z,999.97
2022-11-12T04:36:42.624Z,999.95
2022-11-12T04:37:42.474Z,999.92
2022-11-12T04:38:42.474Z,1000.00
2022-11-12T04:39:42.455Z,1000.00
2022-11-12T04:40:42.464Z,999.97
2022-11-12T04:41:42.436Z,999.99
2022-11-12T04:42:42.425Z,999.85
2022-11-12T04:43:42.424Z,999.91
2022-11-12T04:44:42.418Z,999.88
2022-11-12T04:45:42.415Z,999.85
2022-11-12T04:46:42.393Z,999.90
2022-11-12T04:47:42.375Z,999.84
2022-11-12T04:48:42.365Z,999.84
2022-11-12T04:49:42.355Z,999.82
2022-11-12T04:50:42.385Z,999.85
2022-11-12T04:51:42.373Z,999.89
2022-11-12T04:52:42.315Z,999.86
2022-11-12T04:53:42.315Z,999.89
2022-11-12T04:54:42.306Z,999.93
2022-11-12T04:55:42.294Z,999.93
2022-11-12T04:56:42.277Z,999.86
2022-11-12T04:57:42.288Z,999.92
2022-11-12T04:58:42.268Z,999.95
2022-11-12T04:59:42.246Z,999.95
2022-11-12T05:00:42.256Z,999.97
2022-11-12T05:01:42.260Z,1000.03
2022-11-12T05:02:42.216Z,1000.05
2022-11-12T05:03:42.224Z,1000.03
2022-11-12T05:04:42.199Z,1000.06
2022-11-12T05:05:42.192Z,1000.01
2022-11-12T05:06:42.216Z,1000.05
2022-11-12T05:07:42.165Z,1000.05
2022-11-12T05:08:42.168Z,1000.14
2022-11-12T05:09:42.137Z,1000.03
2022-11-12T05:10:42.132Z,1000.08
2022-11-12T05:11:42.116Z,1000.04
2022-11-12T05:12:42.103Z,1000.07
2022-11-12T05:13:42.096Z,1000.12
2022-11-12T05:14:42.105Z,1000.13
2022-11-12T05:15:42.076Z,1000.12
2022-11-12T05:16:42.056Z,1000.11
2022-11-12T05:17:42.057Z,1000.05
2022-11-12T05:18:42.038Z,1000.03
2022-11-12T05:19:42.046Z,1000.09
2022-11-12T05:20:42.037Z,1000.07
2022-11-12T05:21:43.694Z,1000.06
2022-11-12T05:22:47.845Z,1000.07
2022-11-12T05:23:42.997Z,1000.05
2022-11-12T05:24:42.865Z,1000.07
2022-11-12T05:25:41.987Z,1000.03
2022-11-12T05:26:41.978Z,1000.03
2022-11-12T05:27:41.947Z,1000.05
2022-11-12T05:28:41.930Z,999.97
2022-11-12T05:29:41.937Z,1000.02
2022-11-12T05:30:41.928Z,999.94
2022-11-12T05:31:41.906Z,999.97
2022-11-12T05:32:41.907Z,999.97
2022-11-12T05:33:41.886Z,1000.01
2022-11-12T05:34:41.869Z,1000.00
2022-11-12T05:35:41.890Z,999.97
2022-11-12T05:36:41.849Z,1000.04
2022-11-12T05:37:41.856Z,1000.00
2022-11-12T05:38:41.828Z,1000.07
2022-11-12T05:39:41.821Z,1000.02
2022-11-12T05:40:41.829Z,1000.07
2022-11-12T05:42:10.867Z,1000.06
2022-11-12T05:42:42.780Z,1000.09
2022-11-12T05:43:41.777Z,1000.08
2022-11-12T05:44:41.790Z,1000.06
2022-11-12T05:45:41.759Z,1000.03
2022-11-12T05:46:41.754Z,1000.00
2022-11-12T05:47:41.761Z,1000.03
2022-11-12T05:48:41.719Z,1000.00
2022-11-12T05:49:41.718Z,1000.08
2022-11-12T05:51:06.324Z,1000.07
2022-11-12T05:51:42.689Z,1000.10
2022-11-12T05:52:41.829Z,1000.09
2022-11-12T05:53:41.688Z,1000.05
2022-11-12T05:54:41.650Z,1000.11
2022-11-12T05:55:41.661Z,1000.08
2022-11-12T05:56:41.630Z,1000.08
2022-11-12T05:57:41.631Z,1000.16
2022-11-12T05:58:41.631Z,1000.17
2022-11-12T05:59:41.607Z,1000.19
2022-11-12T06:00:41.591Z,1000.21
2022-11-12T06:01:41.591Z,1000.23
2022-11-12T06:02:43.021Z,1000.25
2022-11-12T06:03:41.591Z,1000.27
2022-11-12T06:04:41.550Z,1000.28
2022-11-12T06:05:41.570Z,1000.26
2022-11-12T06:06:41.574Z,1000.33
2022-11-12T06:07:41.560Z,1000.33
2022-11-12T06:08:41.510Z,1000.30
2022-11-12T06:09:41.502Z,1000.33
2022-11-12T06:10:41.489Z,1000.30
2022-11-12T06:11:41.479Z,1000.37
2022-11-12T06:12:41.461Z,1000.35
2022-11-12T06:13:41.471Z,1000.37
2022-11-12T06:14:41.441Z,1000.35
2022-11-12T06:15:41.443Z,1000.31
2022-11-12T06:16:41.420Z,1000.34
2022-11-12T06:17:41.431Z,1000.35
2022-11-12T06:18:41.402Z,1000.38
2022-11-12T06:19:41.412Z,1000.35
2022-11-12T06:20:41.375Z,1000.40
2022-11-12T06:21:41.371Z,1000.37
2022-11-12T06:22:41.364Z,1000.36
2022-11-12T06:23:41.352Z,1000.36
2022-11-12T06:24:41.332Z,1000.44
2022-11-12T06:25:41.353Z,1000.37
2022-11-12T06:26:41.321Z,1000.43
2022-11-12T06:27:41.310Z,1000.42
2022-11-12T06:28:41.310Z,1000.39
2022-11-12T06:29:41.294Z,1000.41
2022-11-12T06:30:41.271Z,1000.37
2022-11-12T06:31:41.283Z,1000.40
2022-11-12T06:32:41.253Z,1000.39
2022-11-12T06:33:41.242Z,1000.36
2022-11-12T06:34:41.251Z,1000.41
2022-11-12T06:35:43.255Z,1000.40
2022-11-12T06:36:41.222Z,1000.35
2022-11-12T06:37:41.353Z,1000.34
2022-11-12T06:38:41.202Z,1000.40
2022-11-12T06:39:41.193Z,1000.43
2022-11-12T06:40:41.233Z,1000.40
2022-11-12T06:41:41.163Z,1000.39
2022-11-12T06:42:41.153Z,1000.38
2022-11-12T06:43:41.143Z,1000.48
2022-11-12T06:44:41.124Z,1000.46
2022-11-12T06:45:41.113Z,1000.48
2022-11-12T06:46:41.104Z,1000.48
2022-11-12T06:47:41.094Z,1000.47
2022-11-12T06:48:41.073Z,1000.40
2022-11-12T06:49:41.074Z,1000.44
2022-11-12T06:50:41.054Z,1000.38
2022-11-12T06:51:41.075Z,1000.23
2022-11-12T06:52:41.056Z,1000.26
2022-11-12T06:53:41.033Z,1000.29
2022-11-12T06:54:41.039Z,1000.21
2022-11-12T06:55:41.015Z,1000.27
2022-11-12T06:56:41.008Z,1000.24
2022-11-12T06:57:40.986Z,1000.40
2022-11-12T06:58:40.975Z,1000.38
2022-11-12T06:59:40.992Z,1000.34
2022-11-12T07:00:40.945Z,1000.25
2022-11-12T07:01:41.011Z,1000.26
2022-11-12T07:02:40.925Z,1000.27
2022-11-12T07:03:40.925Z,1000.24
2022-11-12T07:04:40.906Z,1000.25
2022-11-12T07:05:40.915Z,1000.34
2022-11-12T07:06:40.954Z,1000.23
2022-11-12T07:07:40.883Z,1000.25
2022-11-12T07:08:40.867Z,1000.31
2022-11-12T07:09:41.008Z,1000.30
2022-11-12T07:10:40.855Z,1000.28
2022-11-12T07:11:40.835Z,1000.29
2022-11-12T07:12:40.825Z,1000.30
2022-11-12T07:13:40.818Z,1000.26
2022-11-12T07:14:40.796Z,1000.26
2022-11-12T07:15:40.797Z,1000.28
2022-11-12T07:16:41.727Z,1000.29
2022-11-12T07:17:40.774Z,1000.29
2022-11-12T07:18:40.757Z,1000.33
2022-11-12T07:19:40.766Z,1000.36
2022-11-12T07:20:40.747Z,1000.35
2022-11-12T07:21:40.747Z,1000.28
2022-11-12T07:22:40.715Z,1000.27
2022-11-12T07:23:40.707Z,1000.26
2022-11-12T07:24:40.687Z,1000.32
2022-11-12T07:25:40.709Z,1000.30
2022-11-12T07:26:44.632Z,1000.28
2022-11-12T07:27:41.665Z,1000.22
2022-11-12T07:28:40.647Z,1000.30
2022-11-12T07:29:48.128Z,1000.24
2022-11-12T07:30:41.668Z,1000.33
2022-11-12T07:31:40.658Z,1000.35
2022-11-12T07:32:45.075Z,1000.38
2022-11-12T07:33:41.598Z,1000.36
2022-11-12T07:34:40.588Z,1000.37
2022-11-12T07:35:40.594Z,1000.26
2022-11-12T07:36:40.580Z,1000.28
2022-11-12T07:37:40.559Z,1000.34
2022-11-12T07:38:40.539Z,1000.29
2022-11-12T07:39:40.546Z,1000.31
2022-11-12T07:40:40.519Z,1000.21
2022-11-12T07:41:40.548Z,1000.25
2022-11-12T07:42:40.526Z,1000.26
2022-11-12T07:43:40.501Z,1000.24
2022-11-12T07:44:40.478Z,1000.20
2022-11-12T07:45:40.481Z,1000.22
2022-11-12T07:46:40.461Z,1000.18
2022-11-12T07:47:40.468Z,1000.21
2022-11-12T07:48:40.439Z,1000.25
2022-11-12T07:49:40.432Z,1000.22
2022-11-12T07:50:40.419Z,1000.21
2022-11-12T07:51:40.427Z,1000.16
2022-11-12T07:52:40.400Z,1000.17
2022-11-12T07:53:41.452Z,1000.18
2022-11-12T07:54:40.400Z,1000.15
2022-11-12T07:55:41.431Z,1000.18
2022-11-12T07:56:40.372Z,1000.16
2022-11-12T07:57:41.070Z,1000.17
2022-11-12T07:58:40.343Z,1000.19
2022-11-12T07:59:45.702Z,1000.18
2022-11-12T08:00:41.331Z,1000.20
2022-11-12T08:01:40.531Z,1000.21
2022-11-12T08:02:40.309Z,1000.25
2022-11-12T08:03:40.839Z,1000.19
2022-11-12T08:04:40.290Z,1000.26
2022-11-12T08:05:40.992Z,1000.24
2022-11-12T08:06:40.376Z,1000.26
2022-11-12T08:07:40.670Z,1000.18
2022-11-12T08:08:40.251Z,1000.16
2022-11-12T08:09:40.511Z,1000.22
2022-11-12T08:10:40.219Z,1000.15
2022-11-12T08:11:40.210Z,1000.19
2022-11-12T08:12:40.191Z,1000.23
2022-11-12T08:13:40.186Z,1000.22
2022-11-12T08:14:40.155Z,1000.26
2022-11-12T08:15:40.152Z,1000.24
2022-11-12T08:16:40.153Z,1000.29
2022-11-12T08:17:40.133Z,1000.29
2022-11-12T08:18:40.120Z,1000.33
2022-11-12T08:19:40.110Z,1000.31
2022-11-12T08:20:40.096Z,1000.29
2022-11-12T08:21:40.173Z,1000.28
2022-11-12T08:22:42.753Z,1000.32
2022-11-12T08:23:41.070Z,1000.28
2022-11-12T08:24:40.061Z,1000.30
2022-11-12T08:25:40.043Z,1000.34
2022-11-12T08:26:40.034Z,1000.28
2022-11-12T08:27:40.043Z,1000.31
2022-11-12T08:28:40.013Z,1000.35
2022-11-12T08:29:40.038Z,1000.29
2022-11-12T08:30:39.991Z,1000.29
2022-11-12T08:31:39.985Z,1000.32
2022-11-12T08:32:39.963Z,1000.30
2022-11-12T08:33:39.955Z,1000.34
2022-11-12T08:34:39.947Z,1000.33
2022-11-12T08:35:39.964Z,1000.27
2022-11-12T08:36:39.934Z,1000.24
2022-11-12T08:37:39.964Z,1000.29
2022-11-12T08:38:39.904Z,1000.25
2022-11-12T08:39:39.895Z,1000.22
2022-11-12T08:40:39.875Z,1000.29
2022-11-12T08:41:39.903Z,1000.21
2022-11-12T08:42:39.857Z,1000.19
2022-11-12T08:43:39.852Z,1000.19
2022-11-12T08:44:39.850Z,1000.22
2022-11-12T08:45:39.845Z,1000.22
2022-11-12T08:46:39.815Z,1000.24
2022-11-12T08:47:39.813Z,1000.19
2022-11-12T08:48:39.795Z,1000.21
2022-11-12T08:49:42.593Z,1000.20
2022-11-12T08:50:40.766Z,1000.26
2022-11-12T08:51:39.785Z,1000.25
2022-11-12T08:52:39.745Z,1000.28
2022-11-12T08:53:39.749Z,1000.28
2022-11-12T08:54:39.776Z,1000.29
2022-11-12T08:55:39.725Z,1000.21
2022-11-12T08:56:39.714Z,1000.22
2022-11-12T08:57:39.747Z,1000.27
2022-11-12T08:58:39.706Z,1000.24
2022-11-12T08:59:39.717Z,1000.29
2022-11-12T09:00:39.687Z,1000.35
2022-11-12T09:01:39.713Z,1000.33
2022-11-12T09:02:39.646Z,1000.35
2022-11-12T09:03:39.709Z,1000.24
2022-11-12T09:04:39.677Z,1000.28
2022-11-12T09:05:39.618Z,1000.25
2022-11-12T09:06:39.640Z,1000.25
2022-11-12T09:07:55.068Z,1000.22
2022-11-12T09:08:40.583Z,1000.27
2022-11-12T09:09:39.568Z,1000.29
2022-11-12T09:10:39.581Z,1000.27
2022-11-12T09:11:39.547Z,1000.26
2022-11-12T09:12:39.547Z,1000.26
2022-11-12T09:13:39.549Z,1000.22
2022-11-12T09:14:39.518Z,1000.23
2022-11-12T09:15:39.527Z,1000.23
2022-11-12T09:16:39.561Z,1000.27
2022-11-12T09:17:39.488Z,1000.19
2022-11-12T09:18:39.479Z,1000.15
2022-11-12T09:19:42.963Z,1000.13
2022-11-12T09:20:39.480Z,1000.15
2022-11-12T09:21:39.438Z,1000.10
2022-11-12T09:22:39.436Z,1000.08
2022-11-12T09:23:39.442Z,1000.09
2022-11-12T09:24:40.422Z,1000.10
2022-11-12T09:25:39.409Z,1000.05
2022-11-12T09:26:40.389Z,1000.03
2022-11-12T09:27:42.074Z,1000.04
2022-11-12T09:28:41.569Z,1000.03
2022-11-12T09:29:39.380Z,1000.04
2022-11-12T09:30:40.370Z,999.98
2022-11-12T09:31:39.348Z,999.97
2022-11-12T09:32:40.050Z,999.94
2022-11-12T09:33:39.787Z,999.95
2022-11-12T09:34:39.643Z,999.91
2022-11-12T09:35:39.329Z,999.95
2022-11-12T09:36:40.065Z,999.87
2022-11-12T09:37:39.278Z,999.89
2022-11-12T09:38:39.282Z,999.87
2022-11-12T09:39:39.252Z,999.91
2022-11-12T09:40:39.259Z,999.90
2022-11-12T09:41:39.221Z,999.99
2022-11-12T09:42:39.220Z,999.94
2022-11-12T09:43:39.223Z,999.98
2022-11-12T09:44:39.198Z,999.95
2022-11-12T09:45:39.181Z,999.87
2022-11-12T09:46:39.192Z,999.89
2022-11-12T09:47:39.162Z,999.85
2022-11-12T09:48:39.176Z,999.89
2022-11-12T09:49:39.151Z,999.94
2022-11-12T09:50:39.143Z,999.90
2022-11-12T09:51:39.112Z,999.88
2022-11-12T09:52:39.131Z,999.85
2022-11-12T09:53:43.969Z,999.85
2022-11-12T09:54:40.097Z,999.84
2022-11-12T09:55:39.073Z,999.88
2022-11-12T09:56:39.083Z,999.96
2022-11-12T09:57:39.072Z,999.89
2022-11-12T09:58:39.057Z,999.94
2022-11-12T09:59:39.033Z,999.94
2022-11-12T10:00:42.471Z,999.92
2022-11-12T10:01:40.109Z,999.95
2022-11-12T10:02:39.012Z,999.97
2022-11-12T10:03:38.993Z,999.95
2022-11-12T10:04:38.991Z,999.92
2022-11-12T10:05:38.964Z,999.92
2022-11-12T10:06:39.028Z,999.90
2022-11-12T10:07:38.944Z,999.90
2022-11-12T10:08:38.950Z,999.94
2022-11-12T10:09:38.923Z,999.99
2022-11-12T10:10:38.925Z,999.89
2022-11-12T10:11:38.914Z,999.86
2022-11-12T10:12:38.895Z,999.87
2022-11-12T10:13:38.884Z,999.87
2022-11-12T10:14:38.885Z,999.88
2022-11-12T10:15:38.876Z,999.90
2022-11-12T10:16:38.873Z,999.91
2022-11-12T10:17:38.855Z,999.85
2022-11-12T10:18:38.835Z,999.90
2022-11-12T10:19:38.846Z,999.88
2022-11-12T10:20:39.031Z,999.95
2022-11-12T10:21:38.815Z,999.90
2022-11-12T10:22:38.789Z,999.93
2022-11-12T10:23:38.787Z,999.88
2022-11-12T10:24:38.776Z,999.84
2022-11-12T10:25:38.757Z,999.83
2022-11-12T10:26:38.767Z,999.81
2022-11-12T10:27:38.754Z,999.77
2022-11-12T10:28:39.392Z,999.78
2022-11-12T10:29:38.737Z,999.80
2022-11-12T10:30:38.707Z,999.78
2022-11-12T10:31:38.686Z,999.80
2022-11-12T10:32:38.736Z,999.76
2022-11-12T10:33:38.668Z,999.76
2022-11-12T10:34:38.659Z,999.70
2022-11-12T10:35:38.638Z,999.73
2022-11-12T10:36:38.638Z,999.70
2022-11-12T10:37:38.619Z,999.67
2022-11-12T10:38:38.638Z,999.72
2022-11-12T10:39:38.598Z,999.69
2022-11-12T10:40:38.618Z,999.71
2022-11-12T10:41:38.579Z,999.66
2022-11-12T10:42:38.570Z,999.74
2022-11-12T10:43:38.550Z,999.71
2022-11-12T10:44:38.550Z,999.72
2022-11-12T10:45:38.549Z,999.68
2022-11-12T10:46:38.530Z,999.70
2022-11-12T10:47:38.511Z,999.69
2022-11-12T10:48:38.501Z,999.71
2022-11-12T10:49:38.490Z,999.70
2022-11-12T10:50:38.513Z,999.74
2022-11-12T10:51:38.491Z,999.65
2022-11-12T10:52:38.471Z,999.61
2022-11-12T10:53:38.440Z,999.59
2022-11-12T10:54:38.473Z,999.56
2022-11-12T10:55:38.444Z,999.63
2022-11-12T10:56:38.421Z,999.62
2022-11-12T10:57:38.430Z,999.57
2022-11-12T10:58:38.409Z,999.62
2022-11-12T10:59:38.392Z,999.61
2022-11-12T11:00:38.392Z,999.62
2022-11-12T11:01:42.999Z,999.61
2022-11-12T11:02:39.354Z,999.48
2022-11-12T11:03:38.332Z,999.50
2022-11-12T11:04:38.341Z,999.49
2022-11-12T11:05:38.324Z,999.53
2022-11-12T11:06:38.381Z,999.48
2022-11-12T11:07:38.293Z,999.46
2022-11-12T11:08:38.627Z,999.50
2022-11-12T11:09:38.274Z,999.48
2022-11-12T11:10:38.291Z,999.46
2022-11-12T11:11:38.275Z,999.45
2022-11-12T11:12:38.255Z,999.41
2022-11-12T11:13:38.246Z,999.45
2022-11-12T11:14:38.224Z,999.42
2022-11-12T11:15:38.212Z,999.46
2022-11-12T11:16:38.216Z,999.47
2022-11-12T11:17:38.185Z,999.43
2022-11-12T11:18:38.185Z,999.38
2022-11-12T11:19:38.166Z,999.38
2022-11-12T11:20:38.185Z,999.39
2022-11-12T11:21:42.035Z,999.38
2022-11-12T11:22:38.155Z,999.37
2022-11-12T11:23:38.124Z,999.36
2022-11-12T11:24:38.127Z,999.21
2022-11-12T11:25:38.096Z,999.27
2022-11-12T11:26:38.113Z,999.22
2022-11-12T11:27:38.078Z,999.23
2022-11-12T11:28:38.069Z,999.25
2022-11-12T11:29:38.087Z,999.24
2022-11-12T11:30:38.167Z,999.14
2022-11-12T11:31:38.071Z,999.21
2022-11-12T11:32:38.117Z,999.24
2022-11-12T11:33:38.069Z,999.18
2022-11-12T11:34:38.079Z,999.20
2022-11-12T11:35:37.999Z,999.21
2022-11-12T11:36:37.988Z,999.15
2022-11-12T11:37:37.969Z,999.19
2022-11-12T11:38:37.960Z,999.17
2022-11-12T11:39:37.946Z,999.11
2022-11-12T11:40:37.962Z,999.08
2022-11-12T11:41:37.928Z,999.11
2022-11-12T11:42:37.919Z,999.12
2022-11-12T11:43:37.925Z,999.08
2022-11-12T11:44:37.898Z,999.10
2022-11-12T11:45:37.900Z,999.05
2022-11-12T11:46:37.879Z,999.03
2022-11-12T11:47:59.400Z,999.04
2022-11-12T11:48:38.854Z,999.02
2022-11-12T11:49:37.851Z,998.99
2022-11-12T11:50:37.842Z,999.00
2022-11-12T11:51:37.831Z,998.92
2022-11-12T11:52:37.815Z,998.92
2022-11-12T11:53:37.799Z,998.94
2022-11-12T11:54:37.784Z,998.93
2022-11-12T11:55:37.772Z,998.90
2022-11-12T11:56:37.785Z,998.85
2022-11-12T11:57:37.753Z,998.87
2022-11-12T11:58:37.745Z,998.94
2022-11-12T11:59:37.734Z,998.93
2022-11-12T12:00:37.730Z,998.96
2022-11-12T12:01:37.735Z,998.91
2022-11-12T12:02:37.702Z,998.83
2022-11-12T12:03:37.715Z,998.86
2022-11-12T12:04:37.676Z,998.78
2022-11-12T12:05:37.667Z,998.79
2022-11-12T12:06:37.694Z,998.76
2022-11-12T12:07:37.645Z,998.71
2022-11-12T12:08:37.656Z,998.69
2022-11-12T12:09:37.626Z,998.70
2022-11-12T12:11:01.360Z,998.70
2022-11-12T12:11:38.598Z,998.69
2022-11-12T12:12:37.596Z,998.71
2022-11-12T12:13:37.609Z,998.78
2022-11-12T12:14:37.569Z,998.71